sensor_id;sensor_type;location;lat;lon;timestamp;pressure;altitude;pressure_sealevel;temperature
59339;BMP280;45117;50.960;5.500;2023-02-04T00:01:05;102362.41;;;7.48
59339;BMP280;45117;50.960;5.500;2023-02-04T00:03:32;102359.97;;;7.43
59339;BMP280;45117;50.960;5.500;2023-02-04T00:05:58;102360.44;;;7.45
59339;BMP280;45117;50.960;5.500;2023-02-04T00:08:26;102358.41;;;7.42
59339;BMP280;45117;50.960;5.500;2023-02-04T00:10:52;102352.59;;;7.40
59339;BMP280;45117;50.960;5.500;2023-02-04T00:13:19;102353.38;;;7.41
59339;BMP280;45117;50.960;5.500;2023-02-04T00:15:45;102355.94;;;7.37
59339;BMP280;45117;50.960;5.500;2023-02-04T00:18:12;102361.72;;;7.39
59339;BMP280;45117;50.960;5.500;2023-02-04T00:20:38;102365.94;;;7.40
59339;BMP280;45117;50.960;5.500;2023-02-04T00:23:05;102369.59;;;7.36
59339;BMP280;45117;50.960;5.500;2023-02-04T00:25:33;102368.84;;;7.35
59339;BMP280;45117;50.960;5.500;2023-02-04T00:27:59;102373.75;;;7.33
59339;BMP280;45117;50.960;5.500;2023-02-04T00:30:25;102365.81;;;7.37
59339;BMP280;45117;50.960;5.500;2023-02-04T00:32:52;102381.44;;;7.35
59339;BMP280;45117;50.960;5.500;2023-02-04T00:35:21;102373.28;;;7.31
59339;BMP280;45117;50.960;5.500;2023-02-04T00:37:47;102372.50;;;7.30
59339;BMP280;45117;50.960;5.500;2023-02-04T00:40:14;102380.06;;;7.28
59339;BMP280;45117;50.960;5.500;2023-02-04T00:42:42;102380.06;;;7.28
59339;BMP280;45117;50.960;5.500;2023-02-04T00:45:09;102380.84;;;7.29
59339;BMP280;45117;50.960;5.500;2023-02-04T00:47:35;102380.84;;;7.29
59339;BMP280;45117;50.960;5.500;2023-02-04T00:50:02;102381.94;;;7.28
59339;BMP280;45117;50.960;5.500;2023-02-04T00:52:29;102380.06;;;7.28
59339;BMP280;45117;50.960;5.500;2023-02-04T00:54:55;102386.19;;;7.29
59339;BMP280;45117;50.960;5.500;2023-02-04T00:57:22;102382.41;;;7.30
59339;BMP280;45117;50.960;5.500;2023-02-04T00:59:49;102379.59;;;7.26
59339;BMP280;45117;50.960;5.500;2023-02-04T01:02:16;102389.94;;;7.28
59339;BMP280;45117;50.960;5.500;2023-02-04T01:04:42;102384.94;;;7.26
59339;BMP280;45117;50.960;5.500;2023-02-04T01:07:09;102387.59;;;7.26
59339;BMP280;45117;50.960;5.500;2023-02-04T01:09:35;102381.47;;;7.26
59339;BMP280;45117;50.960;5.500;2023-02-04T01:12:02;102387.59;;;7.26
59339;BMP280;45117;50.960;5.500;2023-02-04T01:14:28;102388.38;;;7.27
59339;BMP280;45117;50.960;5.500;2023-02-04T01:16:56;102392.94;;;7.26
59339;BMP280;45117;50.960;5.500;2023-02-04T01:19:23;102389.84;;;7.24
59339;BMP280;45117;50.960;5.500;2023-02-04T01:21:49;102395.94;;;7.25
59339;BMP280;45117;50.960;5.500;2023-02-04T01:24:16;102392.94;;;7.26
59339;BMP280;45117;50.960;5.500;2023-02-04T01:26:42;102385.28;;;7.25
59339;BMP280;45117;50.960;5.500;2023-02-04T01:29:09;102398.63;;;7.25
59339;BMP280;45117;50.960;5.500;2023-02-04T01:31:36;102391.28;;;7.22
59339;BMP280;45117;50.960;5.500;2023-02-04T01:34:04;102391.34;;;7.13
59339;BMP280;45117;50.960;5.500;2023-02-04T01:36:31;102390.09;;;7.11
59339;BMP280;45117;50.960;5.500;2023-02-04T01:38:58;102392.97;;;7.06
59339;BMP280;45117;50.960;5.500;2023-02-04T01:41:25;102393.75;;;7.06
59339;BMP280;45117;50.960;5.500;2023-02-04T01:43:52;102400.53;;;7.03
59339;BMP280;45117;50.960;5.500;2023-02-04T01:46:19;102399.44;;;7.04
59339;BMP280;45117;50.960;5.500;2023-02-04T01:48:45;102396.75;;;7.04
59339;BMP280;45117;50.960;5.500;2023-02-04T01:51:16;102404.13;;;7.08
59339;BMP280;45117;50.960;5.500;2023-02-04T01:53:44;102397.19;;;7.07
59339;BMP280;45117;50.960;5.500;2023-02-04T01:56:14;102395.19;;;7.03
59339;BMP280;45117;50.960;5.500;2023-02-04T01:58:42;102399.28;;;7.01
59339;BMP280;45117;50.960;5.500;2023-02-04T02:01:10;102401.84;;;6.97
59339;BMP280;45117;50.960;5.500;2023-02-04T02:03:37;102399.81;;;6.94
59339;BMP280;45117;50.960;5.500;2023-02-04T02:06:06;102385.75;;;6.85
59339;BMP280;45117;50.960;5.500;2023-02-04T02:08:35;102391.97;;;6.89
59339;BMP280;45117;50.960;5.500;2023-02-04T02:11:02;102397.09;;;6.82
59339;BMP280;45117;50.960;5.500;2023-02-04T02:13:29;102390.50;;;6.80
59339;BMP280;45117;50.960;5.500;2023-02-04T02:15:55;102382.66;;;6.74
59339;BMP280;45117;50.960;5.500;2023-02-04T02:18:22;102394.00;;;6.71
59339;BMP280;45117;50.960;5.500;2023-02-04T02:20:49;102384.47;;;6.62
59339;BMP280;45117;50.960;5.500;2023-02-04T02:23:21;102387.81;;;6.59
59339;BMP280;45117;50.960;5.500;2023-02-04T02:25:52;102388.75;;;6.54
59339;BMP280;45117;50.960;5.500;2023-02-04T02:28:20;102385.84;;;6.47
59339;BMP280;45117;50.960;5.500;2023-02-04T02:30:48;102388.19;;;6.40
59339;BMP280;45117;50.960;5.500;2023-02-04T02:33:17;102395.47;;;6.31
59339;BMP280;45117;50.960;5.500;2023-02-04T02:35:45;102388.19;;;6.19
59339;BMP280;45117;50.960;5.500;2023-02-04T02:38:13;102399.72;;;6.23
59339;BMP280;45117;50.960;5.500;2023-02-04T02:40:40;102400.09;;;6.13
59339;BMP280;45117;50.960;5.500;2023-02-04T02:43:12;102406.41;;;6.00
59339;BMP280;45117;50.960;5.500;2023-02-04T02:45:40;102400.91;;;5.96
59339;BMP280;45117;50.960;5.500;2023-02-04T02:48:08;102403.28;;;5.89
59339;BMP280;45117;50.960;5.500;2023-02-04T02:50:36;102401.59;;;5.76
59339;BMP280;45117;50.960;5.500;2023-02-04T02:53:02;102403.03;;;5.73
59339;BMP280;45117;50.960;5.500;2023-02-04T02:55:29;102405.38;;;5.66
59339;BMP280;45117;50.960;5.500;2023-02-04T02:57:56;102416.03;;;5.66
59339;BMP280;45117;50.960;5.500;2023-02-04T03:00:25;102419.97;;;5.60
59339;BMP280;45117;50.960;5.500;2023-02-04T03:02:55;102418.84;;;5.61
59339;BMP280;45117;50.960;5.500;2023-02-04T03:05:25;102422.63;;;5.60
59339;BMP280;45117;50.960;5.500;2023-02-04T03:07:52;102424.03;;;5.57
59339;BMP280;45117;50.960;5.500;2023-02-04T03:10:18;102438.28;;;5.61
59339;BMP280;45117;50.960;5.500;2023-02-04T03:12:46;102433.72;;;5.62
59339;BMP280;45117;50.960;5.500;2023-02-04T03:15:13;102440.78;;;5.66
59339;BMP280;45117;50.960;5.500;2023-02-04T03:17:41;102440.78;;;5.66
59339;BMP280;45117;50.960;5.500;2023-02-04T03:20:11;102438.75;;;5.72
59339;BMP280;45117;50.960;5.500;2023-02-04T03:22:38;102451.00;;;5.73
59339;BMP280;45117;50.960;5.500;2023-02-04T03:25:05;102448.78;;;5.75
59339;BMP280;45117;50.960;5.500;2023-02-04T03:27:32;102451.00;;;5.73
59339;BMP280;45117;50.960;5.500;2023-02-04T03:29:59;102448.16;;;5.78
59339;BMP280;45117;50.960;5.500;2023-02-04T03:32:25;102456.78;;;5.75
59339;BMP280;45117;50.960;5.500;2023-02-04T03:34:53;102464.00;;;5.75
59339;BMP280;45117;50.960;5.500;2023-02-04T03:37:19;102459.44;;;5.66
59339;BMP280;45117;50.960;5.500;2023-02-04T03:39:46;102461.16;;;5.54
59339;BMP280;45117;50.960;5.500;2023-02-04T03:42:12;102464.75;;;5.49
59339;BMP280;45117;50.960;5.500;2023-02-04T03:44:39;102477.16;;;5.54
59339;BMP280;45117;50.960;5.500;2023-02-04T03:47:05;102471.47;;;5.47
59339;BMP280;45117;50.960;5.500;2023-02-04T03:49:32;102474.00;;;5.43
59339;BMP280;45117;50.960;5.500;2023-02-04T03:52:01;102481.84;;;5.39
59339;BMP280;45117;50.960;5.500;2023-02-04T03:54:27;102473.53;;;5.50
59339;BMP280;45117;50.960;5.500;2023-02-04T03:56:54;102488.13;;;5.61
59339;BMP280;45117;50.960;5.500;2023-02-04T03:59:20;102489.53;;;5.67
59339;BMP280;45117;50.960;5.500;2023-02-04T04:01:47;102494.88;;;5.76
59339;BMP280;45117;50.960;5.500;2023-02-04T04:04:13;102499.72;;;5.82
59339;BMP280;45117;50.960;5.500;2023-02-04T04:06:40;102507.09;;;5.85
59339;BMP280;45117;50.960;5.500;2023-02-04T04:09:08;102508.81;;;5.90
59339;BMP280;45117;50.960;5.500;2023-02-04T04:11:34;102501.91;;;5.89
59339;BMP280;45117;50.960;5.500;2023-02-04T04:14:01;102498.47;;;5.88
59339;BMP280;45117;50.960;5.500;2023-02-04T04:16:27;102504.28;;;5.90
59339;BMP280;45117;50.960;5.500;2023-02-04T04:18:54;102508.00;;;5.89
59339;BMP280;45117;50.960;5.500;2023-02-04T04:21:20;102501.44;;;5.87
59339;BMP280;45117;50.960;5.500;2023-02-04T04:23:47;102495.50;;;5.90
59339;BMP280;45117;50.960;5.500;2023-02-04T04:26:15;102502.03;;;5.92
59339;BMP280;45117;50.960;5.500;2023-02-04T04:28:41;102505.81;;;5.91
59339;BMP280;45117;50.960;5.500;2023-02-04T04:31:08;102503.59;;;5.93
59339;BMP280;45117;50.960;5.500;2023-02-04T04:33:34;102496.72;;;5.92
59339;BMP280;45117;50.960;5.500;2023-02-04T04:36:00;102496.72;;;5.92
59339;BMP280;45117;50.960;5.500;2023-02-04T04:38:27;102501.75;;;5.94
59339;BMP280;45117;50.960;5.500;2023-02-04T04:40:54;102498.28;;;5.93
59339;BMP280;45117;50.960;5.500;2023-02-04T04:43:21;102496.88;;;5.96
59339;BMP280;45117;50.960;5.500;2023-02-04T04:45:48;102502.97;;;5.96
59339;BMP280;45117;50.960;5.500;2023-02-04T04:48:15;102505.66;;;5.96
59339;BMP280;45117;50.960;5.500;2023-02-04T04:50:41;102502.97;;;5.96
59339;BMP280;45117;50.960;5.500;2023-02-04T04:53:08;102505.81;;;6.00
59339;BMP280;45117;50.960;5.500;2023-02-04T04:55:35;102502.38;;;6.00
59339;BMP280;45117;50.960;5.500;2023-02-04T04:58:02;102504.53;;;5.97
59339;BMP280;45117;50.960;5.500;2023-02-04T05:00:30;102507.69;;;6.00
59339;BMP280;45117;50.960;5.500;2023-02-04T05:02:56;102508.03;;;5.98
59339;BMP280;45117;50.960;5.500;2023-02-04T05:05:22;102517.41;;;5.95
59339;BMP280;45117;50.960;5.500;2023-02-04T05:07:49;102516.78;;;5.99
59339;BMP280;45117;50.960;5.500;2023-02-04T05:10:18;102511.47;;;5.99
59339;BMP280;45117;50.960;5.500;2023-02-04T05:12:44;102509.59;;;5.99
59339;BMP280;45117;50.960;5.500;2023-02-04T05:15:11;102507.22;;;5.97
59339;BMP280;45117;50.960;5.500;2023-02-04T05:17:39;102509.88;;;5.97
59339;BMP280;45117;50.960;5.500;2023-02-04T05:20:06;102511.59;;;5.93
59339;BMP280;45117;50.960;5.500;2023-02-04T05:22:32;102518.38;;;5.91
59339;BMP280;45117;50.960;5.500;2023-02-04T05:24:59;102514.00;;;5.86
59339;BMP280;45117;50.960;5.500;2023-02-04T05:27:25;102516.81;;;5.81
59339;BMP280;45117;50.960;5.500;2023-02-04T05:29:52;102519.16;;;5.74
59339;BMP280;45117;50.960;5.500;2023-02-04T05:32:18;102525.44;;;5.69
59339;BMP280;45117;50.960;5.500;2023-02-04T05:34:46;102517.41;;;5.52
59339;BMP280;45117;50.960;5.500;2023-02-04T05:37:12;102530.25;;;5.50
59339;BMP280;45117;50.960;5.500;2023-02-04T05:39:41;102534.97;;;5.45
59339;BMP280;45117;50.960;5.500;2023-02-04T05:42:08;102525.53;;;5.38
59339;BMP280;45117;50.960;5.500;2023-02-04T05:44:34;102528.50;;;5.37
59339;BMP280;45117;50.960;5.500;2023-02-04T05:47:01;102527.56;;;5.33
59339;BMP280;45117;50.960;5.500;2023-02-04T05:49:27;102529.59;;;5.27
59339;BMP280;45117;50.960;5.500;2023-02-04T05:51:55;102533.47;;;5.21
59339;BMP280;45117;50.960;5.500;2023-02-04T05:54:21;102545.22;;;5.20
59339;BMP280;45117;50.960;5.500;2023-02-04T05:56:48;102538.16;;;5.15
59339;BMP280;45117;50.960;5.500;2023-02-04T05:59:16;102536.28;;;5.16
59339;BMP280;45117;50.960;5.500;2023-02-04T06:01:42;102540.22;;;5.10
59339;BMP280;45117;50.960;5.500;2023-02-04T06:04:09;102536.75;;;5.09
59339;BMP280;45117;50.960;5.500;2023-02-04T06:06:35;102539.13;;;5.11
59339;BMP280;45117;50.960;5.500;2023-02-04T06:09:03;102541.78;;;5.11
59339;BMP280;45117;50.960;5.500;2023-02-04T06:11:30;102549.25;;;5.09
59339;BMP280;45117;50.960;5.500;2023-02-04T06:13:56;102555.06;;;5.11
59339;BMP280;45117;50.960;5.500;2023-02-04T06:16:23;102547.88;;;5.11
59339;BMP280;45117;50.960;5.500;2023-02-04T06:18:49;102553.63;;;5.13
59339;BMP280;45117;50.960;5.500;2023-02-04T06:21:15;102559.78;;;5.14
59339;BMP280;45117;50.960;5.500;2023-02-04T06:23:42;102557.56;;;5.16
59339;BMP280;45117;50.960;5.500;2023-02-04T06:26:10;102566.53;;;5.20
59339;BMP280;45117;50.960;5.500;2023-02-04T06:28:36;102565.91;;;5.23
59339;BMP280;45117;50.960;5.500;2023-02-04T06:31:03;102567.47;;;5.24
59339;BMP280;45117;50.960;5.500;2023-02-04T06:33:29;102569.03;;;5.25
59339;BMP280;45117;50.960;5.500;2023-02-04T06:35:56;102569.03;;;5.25
59339;BMP280;45117;50.960;5.500;2023-02-04T06:38:22;102571.09;;;5.28
59339;BMP280;45117;50.960;5.500;2023-02-04T06:40:49;102569.38;;;5.32
59339;BMP280;45117;50.960;5.500;2023-02-04T06:43:19;102553.72;;;5.31
59339;BMP280;45117;50.960;5.500;2023-02-04T06:45:45;102563.13;;;5.28
59339;BMP280;45117;50.960;5.500;2023-02-04T06:48:12;102566.09;;;5.27
59339;BMP280;45117;50.960;5.500;2023-02-04T06:50:38;102572.50;;;5.26
59339;BMP280;45117;50.960;5.500;2023-02-04T06:53:05;102572.63;;;5.21
59339;BMP280;45117;50.960;5.500;2023-02-04T06:55:31;102572.44;;;5.17
59339;BMP280;45117;50.960;5.500;2023-02-04T06:57:58;102568.25;;;5.25
59339;BMP280;45117;50.960;5.500;2023-02-04T07:00:26;102575.47;;;5.24
59339;BMP280;45117;50.960;5.500;2023-02-04T07:02:55;102578.75;;;5.21
59339;BMP280;45117;50.960;5.500;2023-02-04T07:05:22;102589.75;;;5.28
59339;BMP280;45117;50.960;5.500;2023-02-04T07:07:49;102594.44;;;5.31
59339;BMP280;45117;50.960;5.500;2023-02-04T07:10:16;102602.59;;;5.35
59339;BMP280;45117;50.960;5.500;2023-02-04T07:12:42;102602.28;;;5.36
59339;BMP280;45117;50.960;5.500;2023-02-04T07:15:09;102600.59;;;5.40
59339;BMP280;45117;50.960;5.500;2023-02-04T07:17:37;102610.91;;;5.42
59339;BMP280;45117;50.960;5.500;2023-02-04T07:20:04;102617.53;;;5.45
59339;BMP280;45117;50.960;5.500;2023-02-04T07:22:30;102622.88;;;5.53
59339;BMP280;45117;50.960;5.500;2023-02-04T07:24:57;102619.41;;;5.53
59339;BMP280;45117;50.960;5.500;2023-02-04T07:27:23;102615.19;;;5.52
59339;BMP280;45117;50.960;5.500;2023-02-04T07:29:49;102612.38;;;5.57
59339;BMP280;45117;50.960;5.500;2023-02-04T07:32:16;102617.53;;;5.62
59339;BMP280;45117;50.960;5.500;2023-02-04T07:34:44;102618.00;;;5.64
59339;BMP280;45117;50.960;5.500;2023-02-04T07:37:10;102625.88;;;5.69
59339;BMP280;45117;50.960;5.500;2023-02-04T07:39:37;102629.00;;;5.71
59339;BMP280;45117;50.960;5.500;2023-02-04T07:42:03;102627.63;;;5.74
59339;BMP280;45117;50.960;5.500;2023-02-04T07:44:30;102623.53;;;5.76
59339;BMP280;45117;50.960;5.500;2023-02-04T07:46:56;102620.72;;;5.81
59339;BMP280;45117;50.960;5.500;2023-02-04T07:49:23;102619.63;;;5.82
59339;BMP280;45117;50.960;5.500;2023-02-04T07:51:50;102616.81;;;5.87
59339;BMP280;45117;50.960;5.500;2023-02-04T07:54:17;102625.44;;;5.93
59339;BMP280;45117;50.960;5.500;2023-02-04T07:56:43;102626.56;;;6.01
59339;BMP280;45117;50.960;5.500;2023-02-04T07:59:10;102627.66;;;6.08
59339;BMP280;45117;50.960;5.500;2023-02-04T08:01:36;102624.03;;;6.13
59339;BMP280;45117;50.960;5.500;2023-02-04T08:04:03;102630.81;;;6.19
59339;BMP280;45117;50.960;5.500;2023-02-04T08:06:30;102634.09;;;6.25
59339;BMP280;45117;50.960;5.500;2023-02-04T08:08:57;102645.19;;;6.35
59339;BMP280;45117;50.960;5.500;2023-02-04T08:11:24;102638.16;;;6.39
59339;BMP280;45117;50.960;5.500;2023-02-04T08:13:51;102648.97;;;6.43
59339;BMP280;45117;50.960;5.500;2023-02-04T08:16:17;102648.78;;;6.48
59339;BMP280;45117;50.960;5.500;2023-02-04T08:18:44;102656.97;;;6.52
59339;BMP280;45117;50.960;5.500;2023-02-04T08:21:10;102660.88;;;6.63
59339;BMP280;45117;50.960;5.500;2023-02-04T08:23:37;102658.06;;;6.68
59339;BMP280;45117;50.960;5.500;2023-02-04T08:26:08;102660.41;;;6.78
59339;BMP280;45117;50.960;5.500;2023-02-04T08:28:35;102661.66;;;6.72
59339;BMP280;45117;50.960;5.500;2023-02-04T08:31:02;102660.41;;;6.78
59339;BMP280;45117;50.960;5.500;2023-02-04T08:33:28;102653.59;;;6.89
59339;BMP280;45117;50.960;5.500;2023-02-04T08:35:55;102665.38;;;6.88
59339;BMP280;45117;50.960;5.500;2023-02-04T08:38:21;102673.75;;;6.87
59339;BMP280;45117;50.960;5.500;2023-02-04T08:40:48;102666.47;;;6.87
59339;BMP280;45117;50.960;5.500;2023-02-04T08:43:16;102667.28;;;6.88
59339;BMP280;45117;50.960;5.500;2023-02-04T08:45:42;102677.47;;;6.94
59339;BMP280;45117;50.960;5.500;2023-02-04T08:48:08;102666.59;;;6.99
59339;BMP280;45117;50.960;5.500;2023-02-04T08:50:35;102670.69;;;7.06
59339;BMP280;45117;50.960;5.500;2023-02-04T08:53:01;102673.47;;;7.18
59339;BMP280;45117;50.960;5.500;2023-02-04T08:55:28;102674.69;;;7.29
59339;BMP280;45117;50.960;5.500;2023-02-04T08:57:54;102676.41;;;7.25
59339;BMP280;45117;50.960;5.500;2023-02-04T09:00:24;102670.84;;;7.47
59339;BMP280;45117;50.960;5.500;2023-02-04T09:02:51;102679.31;;;7.41
59339;BMP280;45117;50.960;5.500;2023-02-04T09:05:17;102682.16;;;7.44
59339;BMP280;45117;50.960;5.500;2023-02-04T09:07:44;102673.53;;;7.68
59339;BMP280;45117;50.960;5.500;2023-02-04T09:10:10;102683.47;;;7.68
59339;BMP280;45117;50.960;5.500;2023-02-04T09:12:37;102688.91;;;7.80
59339;BMP280;45117;50.960;5.500;2023-02-04T09:15:04;102690.78;;;7.79
59339;BMP280;45117;50.960;5.500;2023-02-04T09:17:32;102694.88;;;7.77
59339;BMP280;45117;50.960;5.500;2023-02-04T09:19:59;102697.22;;;7.78
59339;BMP280;45117;50.960;5.500;2023-02-04T09:22:26;102694.47;;;7.87
59339;BMP280;45117;50.960;5.500;2023-02-04T09:24:52;102709.22;;;7.93
59339;BMP280;45117;50.960;5.500;2023-02-04T09:27:19;102701.97;;;7.94
59339;BMP280;45117;50.960;5.500;2023-02-04T09:29:45;102698.53;;;7.93
59339;BMP280;45117;50.960;5.500;2023-02-04T09:32:12;102698.41;;;7.90
59339;BMP280;45117;50.960;5.500;2023-02-04T09:34:40;102703.78;;;8.10
59339;BMP280;45117;50.960;5.500;2023-02-04T09:37:06;102711.94;;;8.14
59339;BMP280;45117;50.960;5.500;2023-02-04T09:39:32;102707.34;;;8.14
59339;BMP280;45117;50.960;5.500;2023-02-04T09:41:59;102706.78;;;8.09
59339;BMP280;45117;50.960;5.500;2023-02-04T09:44:26;102702.34;;;8.13
59339;BMP280;45117;50.960;5.500;2023-02-04T09:46:54;102704.75;;;8.27
59339;BMP280;45117;50.960;5.500;2023-02-04T09:49:21;102701.53;;;8.33
59339;BMP280;45117;50.960;5.500;2023-02-04T09:51:50;102712.19;;;8.42
59339;BMP280;45117;50.960;5.500;2023-02-04T09:54:18;102710.59;;;8.41
59339;BMP280;45117;50.960;5.500;2023-02-04T09:56:45;102713.53;;;8.48
59339;BMP280;45117;50.960;5.500;2023-02-04T09:59:13;102712.88;;;8.51
59339;BMP280;45117;50.960;5.500;2023-02-04T10:01:40;102711.53;;;8.57
59339;BMP280;45117;50.960;5.500;2023-02-04T10:04:09;102707.66;;;8.67
59339;BMP280;45117;50.960;5.500;2023-02-04T10:06:37;102714.19;;;8.78
59339;BMP280;45117;50.960;5.500;2023-02-04T10:09:05;102718.16;;;8.93
59339;BMP280;45117;50.960;5.500;2023-02-04T10:11:36;102717.13;;;8.98
59339;BMP280;45117;50.960;5.500;2023-02-04T10:14:03;102721.06;;;9.12
59339;BMP280;45117;50.960;5.500;2023-02-04T10:16:32;102719.72;;;8.94
59339;BMP280;45117;50.960;5.500;2023-02-04T10:19:01;102719.38;;;9.08
59339;BMP280;45117;50.960;5.500;2023-02-04T10:21:30;102728.22;;;9.20
59339;BMP280;45117;50.960;5.500;2023-02-04T10:23:59;102721.28;;;8.95
59339;BMP280;45117;50.960;5.500;2023-02-04T10:26:29;102728.72;;;8.89
59339;BMP280;45117;50.960;5.500;2023-02-04T10:28:59;102736.19;;;8.96
59339;BMP280;45117;50.960;5.500;2023-02-04T10:31:32;102734.56;;;9.04
59339;BMP280;45117;50.960;5.500;2023-02-04T10:34:05;102731.22;;;8.94
59339;BMP280;45117;50.960;5.500;2023-02-04T10:36:31;102742.41;;;9.21
59339;BMP280;45117;50.960;5.500;2023-02-04T10:38:59;102729.69;;;9.06
59339;BMP280;45117;50.960;5.500;2023-02-04T10:41:25;102739.50;;;9.14
59339;BMP280;45117;50.960;5.500;2023-02-04T10:44:02;102737.34;;;8.95
59339;BMP280;45117;50.960;5.500;2023-02-04T10:46:29;102731.94;;;8.83
59339;BMP280;45117;50.960;5.500;2023-02-04T10:48:56;102740.28;;;9.14
59339;BMP280;45117;50.960;5.500;2023-02-04T10:51:22;102735.13;;;9.21
59339;BMP280;45117;50.960;5.500;2023-02-04T10:53:49;102734.50;;;9.49
59339;BMP280;45117;50.960;5.500;2023-02-04T10:56:33;102738.94;;;9.45
59339;BMP280;45117;50.960;5.500;2023-02-04T10:59:01;102733.81;;;9.40
59339;BMP280;45117;50.960;5.500;2023-02-04T11:01:28;102746.63;;;9.34
59339;BMP280;45117;50.960;5.500;2023-02-04T11:03:55;102737.72;;;9.42
59339;BMP280;45117;50.960;5.500;2023-02-04T11:06:23;102744.19;;;9.78
59339;BMP280;45117;50.960;5.500;2023-02-04T11:08:50;102741.63;;;9.82
59339;BMP280;45117;50.960;5.500;2023-02-04T11:11:20;102742.69;;;9.93
59339;BMP280;45117;50.960;5.500;2023-02-04T11:13:57;102745.38;;;9.93
59339;BMP280;45117;50.960;5.500;2023-02-04T11:16:27;102745.38;;;9.93
59339;BMP280;45117;50.960;5.500;2023-02-04T11:18:56;102747.66;;;9.78
59339;BMP280;45117;50.960;5.500;2023-02-04T11:21:26;102748.00;;;10.17
59339;BMP280;45117;50.960;5.500;2023-02-04T11:24:04;102748.59;;;10.39
59339;BMP280;45117;50.960;5.500;2023-02-04T11:26:33;102748.69;;;10.14
59339;BMP280;45117;50.960;5.500;2023-02-04T11:29:26;102758.31;;;10.15
59339;BMP280;45117;50.960;5.500;2023-02-04T11:32:02;102756.06;;;10.17
59339;BMP280;45117;50.960;5.500;2023-02-04T11:34:31;102751.66;;;10.25
59339;BMP280;45117;50.960;5.500;2023-02-04T11:37:18;102757.44;;;10.39
59339;BMP280;45117;50.960;5.500;2023-02-04T11:39:57;102748.19;;;10.36
59339;BMP280;45117;50.960;5.500;2023-02-04T11:42:28;102746.78;;;10.15
59339;BMP280;45117;50.960;5.500;2023-02-04T11:44:58;102747.97;;;10.29
59339;BMP280;45117;50.960;5.500;2023-02-04T11:47:33;102746.31;;;10.25
59339;BMP280;45117;50.960;5.500;2023-02-04T11:50:02;102746.94;;;10.34
59339;BMP280;45117;50.960;5.500;2023-02-04T11:52:29;102741.19;;;10.48
59339;BMP280;45117;50.960;5.500;2023-02-04T11:54:57;102746.78;;;10.43
59339;BMP280;45117;50.960;5.500;2023-02-04T11:57:24;102745.53;;;10.52
59339;BMP280;45117;50.960;5.500;2023-02-04T11:59:51;102750.56;;;10.54
59339;BMP280;45117;50.960;5.500;2023-02-04T12:02:19;102751.22;;;10.79
59339;BMP280;45117;50.960;5.500;2023-02-04T12:04:52;102751.19;;;10.63
59339;BMP280;45117;50.960;5.500;2023-02-04T12:07:27;102747.44;;;10.68
59339;BMP280;45117;50.960;5.500;2023-02-04T12:09:56;102756.03;;;10.57
59339;BMP280;45117;50.960;5.500;2023-02-04T12:12:25;102750.81;;;10.64
59339;BMP280;45117;50.960;5.500;2023-02-04T12:14:57;102746.75;;;10.55
59339;BMP280;45117;50.960;5.500;2023-02-04T12:17:23;102749.66;;;10.50
59339;BMP280;45117;50.960;5.500;2023-02-04T12:19:51;102745.53;;;10.68
59339;BMP280;45117;50.960;5.500;2023-02-04T12:22:18;102746.25;;;10.65
59339;BMP280;45117;50.960;5.500;2023-02-04T12:24:44;102739.09;;;11.01
59339;BMP280;45117;50.960;5.500;2023-02-04T12:27:11;102746.69;;;10.83
59339;BMP280;45117;50.960;5.500;2023-02-04T12:29:37;102741.16;;;11.07
59339;BMP280;45117;50.960;5.500;2023-02-04T12:32:04;102742.72;;;10.92
59339;BMP280;45117;50.960;5.500;2023-02-04T12:34:30;102741.88;;;10.88
59339;BMP280;45117;50.960;5.500;2023-02-04T12:36:58;102739.53;;;10.87
59339;BMP280;45117;50.960;5.500;2023-02-04T12:39:24;102741.94;;;10.92
59339;BMP280;45117;50.960;5.500;2023-02-04T12:41:52;102754.31;;;10.81
59339;BMP280;45117;50.960;5.500;2023-02-04T12:44:19;102746.19;;;10.93
59339;BMP280;45117;50.960;5.500;2023-02-04T12:46:45;102743.72;;;10.56
59339;BMP280;45117;50.960;5.500;2023-02-04T12:49:12;102752.19;;;10.86
59339;BMP280;45117;50.960;5.500;2023-02-04T12:51:38;102750.53;;;10.82
59339;BMP280;45117;50.960;5.500;2023-02-04T12:54:06;102750.72;;;10.89
59339;BMP280;45117;50.960;5.500;2023-02-04T12:56:33;102749.94;;;10.88
59339;BMP280;45117;50.960;5.500;2023-02-04T12:58:59;102752.53;;;11.01
59339;BMP280;45117;50.960;5.500;2023-02-04T13:01:26;102746.47;;;11.04
59339;BMP280;45117;50.960;5.500;2023-02-04T13:03:52;102750.59;;;10.85
59339;BMP280;45117;50.960;5.500;2023-02-04T13:06:35;102748.09;;;10.92
59339;BMP280;45117;50.960;5.500;2023-02-04T13:09:01;102752.72;;;11.08
59339;BMP280;45117;50.960;5.500;2023-02-04T13:11:28;102743.31;;;11.02
59339;BMP280;45117;50.960;5.500;2023-02-04T13:13:54;102741.59;;;10.93
59339;BMP280;45117;50.960;5.500;2023-02-04T13:16:21;102741.09;;;10.88
59339;BMP280;45117;50.960;5.500;2023-02-04T13:18:49;102742.03;;;10.96
59339;BMP280;45117;50.960;5.500;2023-02-04T13:21:16;102735.72;;;10.88
59339;BMP280;45117;50.960;5.500;2023-02-04T13:23:43;102730.06;;;11.09
59339;BMP280;45117;50.960;5.500;2023-02-04T13:26:10;102736.72;;;11.15
59339;BMP280;45117;50.960;5.500;2023-02-04T13:28:36;102737.84;;;10.98
59339;BMP280;45117;50.960;5.500;2023-02-04T13:31:03;102741.44;;;10.86
59339;BMP280;45117;50.960;5.500;2023-02-04T13:33:30;102740.63;;;11.02
59339;BMP280;45117;50.960;5.500;2023-02-04T13:35:57;102731.47;;;11.03
59339;BMP280;45117;50.960;5.500;2023-02-04T13:38:23;102736.50;;;11.04
59339;BMP280;45117;50.960;5.500;2023-02-04T13:40:52;102734.31;;;11.10
59339;BMP280;45117;50.960;5.500;2023-02-04T13:43:18;102730.56;;;11.30
59339;BMP280;45117;50.960;5.500;2023-02-04T13:45:45;102729.09;;;11.33
59339;BMP280;45117;50.960;5.500;2023-02-04T13:48:13;102722.78;;;11.44
59339;BMP280;45117;50.960;5.500;2023-02-04T13:50:39;102715.56;;;11.29
59339;BMP280;45117;50.960;5.500;2023-02-04T13:53:06;102716.16;;;11.38
59339;BMP280;45117;50.960;5.500;2023-02-04T13:55:33;102717.28;;;11.37
59339;BMP280;45117;50.960;5.500;2023-02-04T13:58:00;102707.75;;;11.59
59339;BMP280;45117;50.960;5.500;2023-02-04T14:00:27;102716.44;;;11.33
59339;BMP280;45117;50.960;5.500;2023-02-04T14:02:53;102717.22;;;11.18
59339;BMP280;45117;50.960;5.500;2023-02-04T14:05:20;102715.06;;;11.08
59339;BMP280;45117;50.960;5.500;2023-02-04T14:07:47;102718.97;;;11.10